• Join FlightAware (Why Join?)
  • Login
  • US Flag 
03:11PM EST


 

Airport Tracker/Info


-or-


 

Live Flight TrackerFlight Track Log ✈ LXJ525 ✈ 21-Jul-2013 ✈ KMIA - KMTN

Flight Track Log - Related Links

Times and Time Zones

All times are in EDT time to prevent confusion due to time zone crossing. See the LXJ525 flight status page for this flight to view local times or setup timezone preferences in your user account.

Time Position Orientation Groundspeed Altitude Reporting Facility
EDT Latitude Longitude Course Direction KTS MPH feet Rate Location/Type
12:02PM 25.8003 -80.2722 77° East 166 191 1,000  Level Miami Center
12:03PM 25.8072 -80.2400 77° East 206 237 2,600 2,820 Climbing Miami Center
12:04PM 25.8192 -80.1806 77° East 258 297 5,100 2,820 Climbing Miami Center
12:05PM 25.8564 -80.1031 62° Northeast 290 334 8,100 3,000 Climbing Miami Center
12:06PM 25.8978 -80.0233 60° Northeast 295 339 11,200 3,060 Climbing Miami Center
12:07PM 25.9414 -79.9367 61° Northeast 334 384 14,300 2,280 Climbing Miami Center
12:08PM 25.9961 -79.8225 62° Northeast 383 441 16,000 840 Climbing Miami Center
12:09PM 26.0436 -79.7358 59° Northeast 428 493 16,000 1,140 Level Miami Center
12:10PM 26.0978 -79.6353 59° Northeast 398 458 18,300 2,280 Climbing Miami Center
12:11PM 26.1561 -79.5417 55° Northeast 376 433 20,600 1,680 Climbing Miami Center
12:12PM 26.2161 -79.4458 55° Northeast 371 427 21,700 1,260 Climbing Miami Center
12:13PM 26.2850 -79.3408 54° Northeast 371 427 23,200 1,560 Climbing Miami Center
12:14PM 26.3428 -79.2469 56° Northeast 383 441 24,900 1,800 Climbing Miami Center
12:15PM 26.4114 -79.1461 53° Northeast 396 456 26,900 1,920 Climbing Miami Center
12:16PM 26.5164 -79.1111 17° North 373 429 28,800 1,500 Climbing Miami Center
12:17PM 26.6333 -79.0994 North 379 436 29,900 1,500 Climbing Miami Center
12:18PM 26.7528 -79.0783 North 407 468 31,900 1,980 Climbing Miami Center
12:19PM 26.8700 -79.0619 North 414 476 33,900 1,740 Climbing Miami Center
12:20PM 26.9894 -79.0478 North 419 482 35,400 1,500 Climbing Miami Center
12:21PM 27.1172 -79.0247 North 426 490 37,000 1,500 Climbing Miami Center
12:22PM 27.2258 -79.0081 North 426 490 38,400 1,500 Climbing Miami Center
12:23PM 27.3578 -78.9894 North 426 490 40,100 1,380 Climbing Miami Center
12:24PM 27.4750 -78.9728 North 426 490 41,200 1,020 Climbing Miami Center
12:25PM 27.5822 -78.9303 19° North 415 478 42,200 900 Climbing Miami Center
12:26PM 27.6786 -78.8875 21° North 415 478 43,100 660 Climbing Miami Center
12:27PM 27.7878 -78.8447 19° North 410 472 43,600 420 Climbing Miami Center
12:28PM 27.8950 -78.8019 19° North 410 472 44,000 300 Climbing Miami Center
12:29PM 27.9981 -78.7497 24° Northeast 403 464 44,200 240 Climbing Miami Center
12:30PM 28.1092 -78.7092 18° North 408 470 44,500 360 Climbing Miami Center
12:31PM 28.2222 -78.6756 15° North 413 475 45,000 240 Climbing Miami Center
12:32PM 28.3336 -78.6303 20° North 413 475 45,000  Level Miami Center
12:33PM 28.4428 -78.5825 21° North 413 475 45,000  Level Miami Center
12:34PM 28.5478 -78.5225 27° Northeast 418 481 45,000  Level Miami Center
12:35PM 28.6589 -78.4650 24° Northeast 418 481 45,000  Level Miami Center
12:36PM 28.7722 -78.4028 26° Northeast 432 497 45,000 -60 Level Miami Center
12:37PM 28.8856 -78.3428 25° Northeast 432 497 44,900 -60 Descending Miami Center
12:38PM 28.9947 -78.2825 26° Northeast 432 497 44,900  Level Miami Center
12:39PM 29.1183 -78.2461 14° North 443 510 45,000  Climbing Miami Center
12:40PM 29.2475 -78.2525 358° North 453 521 45,000  Level Miami Center
12:41PM 29.3722 -78.2919 345° North 456 525 45,000 -60 Level Miami Center
12:42PM 29.4844 -78.3436 338° Northwest 442 509 44,900 -60 Descending Miami Center
12:43PM 29.6008 -78.3953 339° North 442 509 44,900  Level Miami Center
12:44PM 29.7211 -78.4494 339° North 448 516 45,000  Climbing Miami Center
12:45PM 29.8969 -78.5133 343° North 438 504 45,000 -60 Level Jacksonville Center
12:46PM 30.0197 -78.5581 342° North 442 509 44,900  Descending Jacksonville Center
12:47PM 30.1244 -78.6325 328° Northwest 452 520 45,000  Climbing Jacksonville Center
12:48PM 30.2314 -78.7169 326° Northwest 458 527 45,000  Level Jacksonville Center
12:49PM 30.3258 -78.7897 326° Northwest 458 527 45,000  Level Jacksonville Center
12:50PM 30.4286 -78.8719 325° Northwest 458 527 45,000  Level Jacksonville Center
12:52PM 30.6567 -79.0267 330° Northwest 466 536 45,000  Level Jacksonville Center
12:53PM 30.7592 -79.1044 327° Northwest 461 531 45,000  Level Jacksonville Center
12:54PM 30.8739 -79.1653 336° Northwest 461 531 45,000  Level Jacksonville Center
12:55PM 30.9958 -79.1969 347° North 455 524 45,000  Level Jacksonville Center
12:56PM 31.1353 -79.1867 North 442 509 45,000  Level Jacksonville Center
12:57PM 31.2531 -79.1431 18° North 445 512 45,000 -60 Level Jacksonville Center
12:58PM 31.3728 -79.0969 18° North 443 510 44,900  Descending Jacksonville Center
12:59PM 31.4903 -79.0506 19° North 443 510 45,000  Climbing Jacksonville Center
01:00PM 31.6103 -79.0092 16° North 437 503 45,000  Level Jacksonville Center
01:01PM 31.7369 -78.9892 North 437 503 45,000  Level Jacksonville Center
01:02PM 31.8619 -78.9789 North 448 516 45,000  Level Jacksonville Center
01:03PM 31.9908 -78.9686 North 448 516 45,000  Level Jacksonville Center
01:04PM 32.1136 -78.9561 North 448 516 45,000 -60 Level Jacksonville Center
01:05PM 32.2361 -78.9286 11° North 448 516 44,900  Descending Jacksonville Center
01:06PM 32.3514 -78.8794 20° North 443 510 45,000  Climbing Jacksonville Center
01:07PM 32.4683 -78.8200 23° Northeast 443 510 45,000 -60 Level Jacksonville Center
01:08PM 32.5836 -78.7656 22° Northeast 443 510 44,900  Descending Jacksonville Center
01:09PM 32.7006 -78.7058 23° Northeast 448 516 45,000  Climbing Jacksonville Center
01:10PM 32.8175 -78.6486 22° Northeast 448 516 44,900  Descending Jacksonville Center
01:11PM 32.9286 -78.5939 22° Northeast 442 509 45,000  Climbing Jacksonville Center
01:12PM 33.0456 -78.5361 22° Northeast 442 509 45,000  Level Jacksonville Center
01:13PM 33.1625 -78.4783 22° Northeast 447 514 45,000  Level Jacksonville Center
01:14PM 33.2772 -78.4206 23° Northeast 447 514 45,000  Level Jacksonville Center
01:16PM 33.5069 -78.3061 23° Northeast 442 509 45,000  Level Washington Center
01:17PM 33.6250 -78.2475 22° Northeast 442 509 45,000  Level Washington Center
01:18PM 33.7447 -78.2064 16° North 442 509 45,000  Level Washington Center
01:19PM 33.8706 -78.1856 North 442 509 45,000  Level Washington Center
01:20PM 33.9983 -78.1594 10° North 452 520 45,000 -60 Level Washington Center
01:21PM 34.1386 -78.1286 10° North 462 532 44,900 -600 Descending Washington Center
01:22PM 34.2667 -78.0975 11° North 462 532 43,800 -1,140 Descending Washington Center
01:23PM 34.3883 -78.0683 11° North 457 526 42,700 -1,080 Descending Washington Center
01:24PM 34.5119 -78.0394 11° North 451 519 41,700 -1,020 Descending Washington Center
01:25PM 34.6397 -78.0103 11° North 451 519 40,700 -1,020 Descending Washington Center
01:26PM 34.7678 -77.9814 10° North 457 526 39,700 -1,860 Descending Washington Center
01:27PM 34.8872 -77.9494 12° North 446 513 37,000 -960 Descending Washington Center
01:28PM 35.0150 -77.9200 11° North 446 513 37,800  Climbing Washington Center
01:29PM 35.1408 -77.8933 10° North 451 519 37,000 -420 Descending Washington Center
01:30PM 35.2686 -77.8639 11° North 457 526 37,000  Level Washington Center
01:31PM 35.3986 -77.8344 10° North 462 532 37,000 -180 Level Washington Center
01:32PM 35.5283 -77.8047 11° North 468 539 36,700 -720 Descending Washington Center
01:33PM 35.6564 -77.7753 11° North 468 539 35,600 -1,080 Descending Washington Center
01:34PM 35.7800 -77.7478 10° North 463 533 34,600 -960 Descending Washington Center
01:35PM 35.9078 -77.7181 11° North 463 533 33,700 -960 Descending Washington Center
01:36PM 36.0231 -77.6903 11° North 468 539 32,800 -960 Descending Washington Center
01:37PM 36.1528 -77.6603 11° North 468 539 31,800 -960 Descending Washington Center
01:38PM 36.2806 -77.6275 12° North 468 539 30,900 -960 Descending Washington Center
01:39PM 36.4106 -77.5947 11° North 468 539 29,900 -960 Descending Washington Center
01:40PM 36.5508 -77.5622 11° North 468 539 29,000 -480 Descending Washington Center
01:41PM 36.6808 -77.5292 12° North 468 539 29,000 -60 Level Washington Center
01:42PM 36.8106 -77.4961 12° North 468 539 28,900 -1,020 Descending Washington Center
01:43PM 36.9425 -77.4656 10° North 468 539 27,000 -1,980 Descending Washington Center
01:44PM 37.0703 -77.4322 12° North 468 539 25,000 -1,500 Descending Washington Center
01:45PM 37.1939 -77.4014 11° North 463 533 24,000 -540 Descending Washington Center
01:46PM 37.3133 -77.3703 12° North 450 518 24,000 -240 Level Washington Center
01:47PM 37.4367 -77.3389 11° North 450 518 23,600 -540 Descending Washington Center
01:48PM 37.5581 -77.3103 11° North 450 518 23,000 -300 Descending Washington Center
01:49PM 37.6836 -77.2842 North 450 518 23,000  Level Washington Center
01:50PM 37.8031 -77.2581 10° North 445 512 23,000 -240 Level Washington Center
01:51PM 37.9242 -77.2344 North 445 512 22,600 -840 Descending Washington Center
01:52PM 38.0414 -77.2106 North 439 505 21,400 -1,800 Descending Washington Center
01:53PM 38.1628 -77.1842 10° North 439 505 19,100 -2,280 Descending Washington Center
01:54PM 38.2778 -77.1575 10° North 428 493 17,000 -2,040 Descending Washington Center
01:55PM 38.3844 -77.1333 10° North 405 466 15,000 -1,920 Descending Washington Center
01:56PM 38.4628 -77.0419 42° Northeast 366 421 13,200 -1,620 Descending Washington Center
01:57PM 38.5325 -76.9586 43° Northeast 359 413 11,800 -1,200 Descending Washington Center
01:58PM 38.5936 -76.8825 44° Northeast 328 377 10,800 -1,020 Descending Washington Center
01:59PM 38.6550 -76.8067 44° Northeast 313 360 9,800 -1,020 Descending Washington Center
02:00PM 38.7142 -76.7278 46° Northeast 299 344 8,800 -1,200 Descending Washington Center
02:01PM 38.7525 -76.6353 62° Northeast 299 344 7,500 -1,320 Descending Washington Center
02:02PM 38.7833 -76.5667 60° Northeast 291 335 6,500 -840 Descending Potomac TRACON
02:03PM 38.8500 -76.5000 38° Northeast 283 326 6,000 -720 Descending Potomac TRACON
02:04PM 38.9333 -76.5000 360° North 273 314 5,100 -960 Descending Potomac TRACON
02:05PM 39.0000 -76.4833 11° North 267 307 4,100 -1,020 Descending Potomac TRACON
02:06PM 39.0833 -76.4667 North 266 306 3,100 -900 Descending Potomac TRACON
02:07PM 39.1500 -76.4500 11° North 242 278 2,400 -600 Descending Potomac TRACON
02:08PM 39.2000 -76.4333 14° North 211 243 2,000 -360 Descending Potomac TRACON
02:09PM 39.2667 -76.4333 360° North 191 220 1,700 -300 Descending Potomac TRACON
02:10PM 39.3000 -76.4500 339° North 176 203 1,500 -420 Descending Potomac TRACON
02:11PM 39.3333 -76.4667 339° North 154 177 900 -600 Descending Potomac TRACON
02:12PM 39.3333 -76.4333 90° East 148 170 300 -600 Descending Potomac TRACON
02:14PM 39.3257 -76.4138 108° East  Level Estimated
02:21PM 39.3257 -76.4138 108° East  Level Estimated
02:22PM 39.3257 -76.4138 108° East  Level Estimated
02:23PM 39.3257 -76.4138 108° East  Level Estimated
02:24PM 39.3257 -76.4138 108° East  Level Estimated
02:25PM 39.3257 -76.4138 108° East  Level Estimated
02:26PM 39.3257 -76.4138 108° East  Level Estimated
02:27PM 39.3257 -76.4138 108° East  Level Estimated
02:28PM 39.3257 -76.4138 108° East  Level Estimated